createdAt,value
2018-12-29T00:00:16.737Z,1015.74
2018-12-29T00:01:16.722Z,1015.75
2018-12-29T00:02:16.708Z,1015.74
2018-12-29T00:03:16.693Z,1015.75
2018-12-29T00:04:16.680Z,1015.72
2018-12-29T00:05:16.669Z,1015.74
2018-12-29T00:06:16.854Z,1015.72
2018-12-29T00:07:16.645Z,1015.72
2018-12-29T00:08:16.625Z,1015.73
2018-12-29T00:09:16.607Z,1015.68
2018-12-29T00:10:16.594Z,1015.67
2018-12-29T00:11:16.580Z,1015.70
2018-12-29T00:12:16.565Z,1015.68
2018-12-29T00:13:16.552Z,1015.69
2018-12-29T00:14:16.536Z,1015.70
2018-12-29T00:15:16.523Z,1015.70
2018-12-29T00:16:16.511Z,1015.71
2018-12-29T00:17:16.493Z,1015.77
2018-12-29T00:18:16.483Z,1015.82
2018-12-29T00:19:16.466Z,1015.83
2018-12-29T00:20:16.452Z,1015.85
2018-12-29T00:21:16.439Z,1015.82
2018-12-29T00:22:16.423Z,1015.84
2018-12-29T00:23:16.410Z,1015.84
2018-12-29T00:24:16.396Z,1015.88
2018-12-29T00:25:16.381Z,1015.94
2018-12-29T00:26:16.371Z,1015.93
2018-12-29T00:27:16.354Z,1015.83
2018-12-29T00:28:16.341Z,1015.84
2018-12-29T00:29:16.325Z,1015.84
2018-12-29T00:30:16.562Z,1015.79
2018-12-29T00:31:16.300Z,1015.83
2018-12-29T00:32:16.294Z,1015.84
2018-12-29T00:33:16.270Z,1015.94
2018-12-29T00:34:16.257Z,1015.95
2018-12-29T00:35:16.243Z,1015.91
2018-12-29T00:36:16.232Z,1015.93
2018-12-29T00:37:16.213Z,1015.95
2018-12-29T00:38:16.199Z,1015.95
2018-12-29T00:39:16.186Z,1015.95
2018-12-29T00:40:16.172Z,1015.98
2018-12-29T00:41:16.157Z,1016.00
2018-12-29T00:42:16.144Z,1015.96
2018-12-29T00:43:16.133Z,1015.98
2018-12-29T00:44:16.116Z,1015.98
2018-12-29T00:45:16.303Z,1016.03
2018-12-29T00:46:16.089Z,1016.03
2018-12-29T00:47:16.074Z,1016.02
2018-12-29T00:48:16.061Z,1016.02
2018-12-29T00:49:16.047Z,1016.07
2018-12-29T00:50:16.036Z,1016.12
2018-12-29T00:51:16.022Z,1016.13
2018-12-29T00:52:16.005Z,1016.14
2018-12-29T00:53:15.992Z,1016.16
2018-12-29T00:54:15.980Z,1016.13
2018-12-29T00:55:15.964Z,1016.13
2018-12-29T00:56:15.955Z,1016.13
2018-12-29T00:57:15.936Z,1016.16
2018-12-29T00:58:15.923Z,1016.15
2018-12-29T00:59:15.909Z,1016.10
2018-12-29T01:00:15.896Z,1016.09
2018-12-29T01:01:15.882Z,1016.04
2018-12-29T01:02:15.868Z,1016.05
2018-12-29T01:03:15.855Z,1016.05
2018-12-29T01:04:15.842Z,1016.03
2018-12-29T01:05:15.827Z,1016.00
2018-12-29T01:06:15.814Z,1016.03
2018-12-29T01:07:15.800Z,1015.98
2018-12-29T01:08:15.794Z,1016.00
2018-12-29T01:09:15.974Z,1016.00
2018-12-29T01:10:15.759Z,1016.00
2018-12-29T01:11:15.746Z,1015.97
2018-12-29T01:12:15.732Z,1016.00
2018-12-29T01:13:15.718Z,1016.00
2018-12-29T01:14:15.707Z,1016.02
2018-12-29T01:15:15.691Z,1016.06
2018-12-29T01:16:15.680Z,1016.06
2018-12-29T01:17:15.664Z,1016.07
2018-12-29T01:18:15.651Z,1016.02
2018-12-29T01:19:15.638Z,1016.03
2018-12-29T01:20:15.629Z,1016.06
2018-12-29T01:21:15.612Z,1016.06
2018-12-29T01:22:15.597Z,1016.04
2018-12-29T01:23:15.585Z,1016.04
2018-12-29T01:24:15.571Z,1016.05
2018-12-29T01:25:15.557Z,1016.03
2018-12-29T01:27:15.530Z,1016.03
2018-12-29T01:28:15.518Z,1016.04
2018-12-29T01:29:15.504Z,1016.03
2018-12-29T01:30:15.490Z,1016.01
2018-12-29T01:31:15.478Z,1016.01
2018-12-29T01:32:15.464Z,1016.00
2018-12-29T01:33:15.450Z,1015.97
2018-12-29T01:34:15.436Z,1016.01
2018-12-29T01:35:15.426Z,1016.05
2018-12-29T01:36:15.497Z,1016.06
2018-12-29T01:37:15.397Z,1016.15
2018-12-29T01:38:15.384Z,1016.16
2018-12-29T01:39:15.374Z,1016.18
2018-12-29T01:40:15.356Z,1016.18
2018-12-29T01:41:15.342Z,1016.20
2018-12-29T01:42:15.328Z,1016.21
2018-12-29T01:43:15.390Z,1016.20
2018-12-29T01:44:15.305Z,1016.21
2018-12-29T01:45:17.573Z,1016.20
2018-12-29T01:46:15.275Z,1016.21
2018-12-29T01:47:15.261Z,1016.18
2018-12-29T01:48:15.249Z,1016.17
2018-12-29T01:49:15.233Z,1016.20
2018-12-29T01:50:15.220Z,1016.18
2018-12-29T01:51:15.209Z,1016.16
2018-12-29T01:52:15.194Z,1016.15
2018-12-29T01:53:15.180Z,1016.18
2018-12-29T01:54:15.166Z,1016.15
2018-12-29T01:55:15.153Z,1016.10
2018-12-29T01:56:15.144Z,1016.08
2018-12-29T01:57:15.127Z,1016.07
2018-12-29T01:58:15.113Z,1016.08
2018-12-29T01:59:15.101Z,1016.05
2018-12-29T02:00:15.087Z,1016.12
2018-12-29T02:01:15.073Z,1016.14
2018-12-29T02:02:15.060Z,1016.17
2018-12-29T02:03:15.046Z,1016.15
2018-12-29T02:04:15.033Z,1016.18
2018-12-29T02:05:15.019Z,1016.16
2018-12-29T02:06:15.006Z,1016.12
2018-12-29T02:07:15.243Z,1016.10
2018-12-29T02:08:14.979Z,1016.12
2018-12-29T02:09:14.965Z,1016.14
2018-12-29T02:10:14.952Z,1016.14
2018-12-29T02:11:14.939Z,1016.14
2018-12-29T02:12:14.926Z,1016.08
2018-12-29T02:13:14.912Z,1016.08
2018-12-29T02:14:15.101Z,1016.07
2018-12-29T02:15:14.886Z,1016.05
2018-12-29T02:16:14.873Z,1016.02
2018-12-29T02:17:14.858Z,1016.05
2018-12-29T02:18:14.845Z,1016.07
2018-12-29T02:19:14.831Z,1016.03
2018-12-29T02:20:14.824Z,1016.04
2018-12-29T02:21:14.807Z,1016.03
2018-12-29T02:22:14.790Z,1016.05
2018-12-29T02:23:14.777Z,1016.00
2018-12-29T02:24:14.764Z,1016.05
2018-12-29T02:25:14.751Z,1016.07
2018-12-29T02:26:14.736Z,1016.08
2018-12-29T02:27:14.723Z,1016.09
2018-12-29T02:28:14.710Z,1016.09
2018-12-29T02:29:14.696Z,1016.10
2018-12-29T02:30:14.684Z,1016.11
2018-12-29T02:31:14.674Z,1016.17
2018-12-29T02:32:14.660Z,1016.17
2018-12-29T02:33:14.643Z,1016.18
2018-12-29T02:34:14.631Z,1016.17
2018-12-29T02:35:14.617Z,1016.18
2018-12-29T02:36:14.607Z,1016.18
2018-12-29T02:37:14.599Z,1016.17
2018-12-29T02:38:14.580Z,1016.21
2018-12-29T02:39:14.564Z,1016.29
2018-12-29T02:40:14.578Z,1016.29
2018-12-29T02:41:14.536Z,1016.31
2018-12-29T02:42:14.524Z,1016.32
2018-12-29T02:43:14.510Z,1016.29
2018-12-29T02:44:14.497Z,1016.29
2018-12-29T02:45:14.487Z,1016.31
2018-12-29T02:46:14.470Z,1016.27
2018-12-29T02:47:14.456Z,1016.29
2018-12-29T02:48:14.448Z,1016.31
2018-12-29T02:49:14.430Z,1016.28
2018-12-29T02:50:14.418Z,1016.30
2018-12-29T02:51:14.403Z,1016.33
2018-12-29T02:52:14.390Z,1016.37
2018-12-29T02:53:14.376Z,1016.38
2018-12-29T02:54:14.363Z,1016.37
2018-12-29T02:55:14.350Z,1016.39
2018-12-29T02:56:14.337Z,1016.35
2018-12-29T02:57:14.323Z,1016.32
2018-12-29T02:58:14.309Z,1016.33
2018-12-29T02:59:14.296Z,1016.35
2018-12-29T03:00:14.285Z,1016.39
2018-12-29T03:01:14.269Z,1016.43
2018-12-29T03:02:14.259Z,1016.43
2018-12-29T03:03:14.241Z,1016.44
2018-12-29T03:04:14.228Z,1016.44
2018-12-29T03:05:14.215Z,1016.46
2018-12-29T03:06:14.403Z,1016.46
2018-12-29T03:07:14.190Z,1016.45
2018-12-29T03:08:14.181Z,1016.47
2018-12-29T03:09:14.160Z,1016.48
2018-12-29T03:10:14.154Z,1016.54
2018-12-29T03:11:14.133Z,1016.53
2018-12-29T03:12:14.127Z,1016.51
2018-12-29T03:13:14.107Z,1016.52
2018-12-29T03:14:14.091Z,1016.51
2018-12-29T03:15:14.078Z,1016.50
2018-12-29T03:16:14.064Z,1016.48
2018-12-29T03:17:14.049Z,1016.46
2018-12-29T03:18:14.035Z,1016.44
2018-12-29T03:19:14.022Z,1016.44
2018-12-29T03:20:14.010Z,1016.42
2018-12-29T03:21:14.020Z,1016.45
2018-12-29T03:22:13.982Z,1016.40
2018-12-29T03:23:13.967Z,1016.42
2018-12-29T03:24:13.954Z,1016.39
2018-12-29T03:25:13.947Z,1016.35
2018-12-29T03:26:13.950Z,1016.30
2018-12-29T03:27:13.911Z,1016.29
2018-12-29T03:28:13.900Z,1016.31
2018-12-29T03:29:13.933Z,1016.34
2018-12-29T03:30:13.871Z,1016.33
2018-12-29T03:31:13.865Z,1016.28
2018-12-29T03:32:13.848Z,1016.27
2018-12-29T03:33:13.831Z,1016.23
2018-12-29T03:34:13.816Z,1016.21
2018-12-29T03:35:13.808Z,1016.22
2018-12-29T03:36:13.788Z,1016.20
2018-12-29T03:37:13.783Z,1016.18
2018-12-29T03:38:13.759Z,1016.13
2018-12-29T03:39:13.746Z,1016.17
2018-12-29T03:40:13.731Z,1016.12
2018-12-29T03:41:13.715Z,1016.13
2018-12-29T03:42:13.703Z,1016.13
2018-12-29T03:43:13.689Z,1016.14
2018-12-29T03:44:13.679Z,1016.13
2018-12-29T03:45:13.663Z,1016.16
2018-12-29T03:46:13.647Z,1016.14
2018-12-29T03:47:13.633Z,1016.18
2018-12-29T03:48:13.619Z,1016.20
2018-12-29T03:49:13.604Z,1016.20
2018-12-29T03:50:13.600Z,1016.22
2018-12-29T03:51:13.578Z,1016.18
2018-12-29T03:52:13.563Z,1016.19
2018-12-29T03:53:13.549Z,1016.19
2018-12-29T03:54:13.535Z,1016.19
2018-12-29T03:55:13.522Z,1016.15
2018-12-29T03:56:13.509Z,1016.15
2018-12-29T03:57:13.497Z,1016.14
2018-12-29T03:58:13.481Z,1016.11
2018-12-29T03:59:13.466Z,1016.09
2018-12-29T04:00:13.454Z,1016.10
2018-12-29T04:01:13.438Z,1016.11
2018-12-29T04:02:13.425Z,1016.06
2018-12-29T04:03:13.412Z,1016.04
2018-12-29T04:04:13.398Z,1016.06
2018-12-29T04:05:13.383Z,1016.00
2018-12-29T04:06:13.369Z,1016.00
2018-12-29T04:07:13.360Z,1015.99
2018-12-29T04:08:13.343Z,1015.99
2018-12-29T04:09:13.328Z,1016.01
2018-12-29T04:10:13.315Z,1015.95
2018-12-29T04:11:13.301Z,1015.95
2018-12-29T04:12:13.287Z,1015.96
2018-12-29T04:13:13.273Z,1015.92
2018-12-29T04:14:13.259Z,1015.97
2018-12-29T04:15:13.245Z,1015.95
2018-12-29T04:16:13.232Z,1015.95
2018-12-29T04:17:13.219Z,1015.93
2018-12-29T04:18:13.205Z,1015.94
2018-12-29T04:19:13.190Z,1015.93
2018-12-29T04:20:13.176Z,1015.94
2018-12-29T04:21:13.166Z,1015.93
2018-12-29T04:22:13.148Z,1015.92
2018-12-29T04:23:13.135Z,1015.90
2018-12-29T04:24:13.121Z,1015.87
2018-12-29T04:25:13.107Z,1015.89
2018-12-29T04:26:13.093Z,1015.87
2018-12-29T04:27:13.146Z,1015.87
2018-12-29T04:28:13.073Z,1015.86
2018-12-29T04:29:13.051Z,1015.85
2018-12-29T04:30:13.037Z,1015.86
2018-12-29T04:31:13.024Z,1015.82
2018-12-29T04:32:13.010Z,1015.85
2018-12-29T04:33:12.995Z,1015.81
2018-12-29T04:34:12.982Z,1015.81
2018-12-29T04:35:12.968Z,1015.79
2018-12-29T04:36:12.955Z,1015.87
2018-12-29T04:37:12.940Z,1015.77
2018-12-29T04:38:12.926Z,1015.82
2018-12-29T04:39:13.115Z,1015.78
2018-12-29T04:40:12.900Z,1015.82
2018-12-29T04:41:12.885Z,1015.79
2018-12-29T04:42:12.870Z,1015.81
2018-12-29T04:43:12.857Z,1015.85
2018-12-29T04:44:12.843Z,1015.79
2018-12-29T04:45:12.834Z,1015.84
2018-12-29T04:46:12.815Z,1015.83
2018-12-29T04:47:12.801Z,1015.78
2018-12-29T04:48:12.786Z,1015.77
2018-12-29T04:49:12.771Z,1015.74
2018-12-29T04:50:12.757Z,1015.76
2018-12-29T04:51:12.744Z,1015.76
2018-12-29T04:52:12.730Z,1015.75
2018-12-29T04:53:12.716Z,1015.74
2018-12-29T04:54:12.701Z,1015.69
2018-12-29T04:55:12.938Z,1015.70
2018-12-29T04:56:12.673Z,1015.66
2018-12-29T04:57:12.659Z,1015.64
2018-12-29T04:58:12.647Z,1015.58
2018-12-29T04:59:12.632Z,1015.56
2018-12-29T05:00:12.618Z,1015.56
2018-12-29T05:01:12.603Z,1015.56
2018-12-29T05:02:12.589Z,1015.57
2018-12-29T05:03:12.576Z,1015.56
2018-12-29T05:04:12.571Z,1015.57
2018-12-29T05:05:12.547Z,1015.53
2018-12-29T05:06:12.534Z,1015.54
2018-12-29T05:07:12.521Z,1015.58
2018-12-29T05:08:12.507Z,1015.58
2018-12-29T05:09:12.491Z,1015.52
2018-12-29T05:10:12.477Z,1015.51
2018-12-29T05:11:12.464Z,1015.50
2018-12-29T05:12:12.450Z,1015.50
2018-12-29T05:13:12.434Z,1015.49
2018-12-29T05:14:12.421Z,1015.48
2018-12-29T05:15:12.407Z,1015.43
2018-12-29T05:16:13.001Z,1015.46
2018-12-29T05:17:12.383Z,1015.45
2018-12-29T05:18:12.365Z,1015.42
2018-12-29T05:19:12.355Z,1015.44
2018-12-29T05:20:12.337Z,1015.48
2018-12-29T05:21:12.323Z,1015.48
2018-12-29T05:22:12.310Z,1015.49
2018-12-29T05:23:12.299Z,1015.49
2018-12-29T05:24:12.284Z,1015.52
2018-12-29T05:25:12.269Z,1015.55
2018-12-29T05:26:12.255Z,1015.59
2018-12-29T05:27:12.241Z,1015.56
2018-12-29T05:28:12.228Z,1015.57
2018-12-29T05:29:12.213Z,1015.62
2018-12-29T05:30:12.199Z,1015.54
2018-12-29T05:31:12.185Z,1015.54
2018-12-29T05:32:12.173Z,1015.63
2018-12-29T05:33:12.157Z,1015.66
2018-12-29T05:34:12.144Z,1015.72
2018-12-29T05:35:12.136Z,1015.74
2018-12-29T05:36:12.119Z,1015.75
2018-12-29T05:37:12.103Z,1015.79
2018-12-29T05:38:12.090Z,1015.81
2018-12-29T05:39:12.077Z,1015.86
2018-12-29T05:40:12.064Z,1015.87
2018-12-29T05:41:12.053Z,1015.90
2018-12-29T05:42:12.035Z,1015.95
2018-12-29T05:43:12.022Z,1015.97
2018-12-29T05:44:12.009Z,1016.03
2018-12-29T05:45:11.995Z,1016.03
2018-12-29T05:46:11.982Z,1016.06
2018-12-29T05:47:11.970Z,1016.03
2018-12-29T05:48:11.956Z,1016.07
2018-12-29T05:49:11.941Z,1016.11
2018-12-29T05:50:11.943Z,1016.12
2018-12-29T05:51:11.915Z,1016.16
2018-12-29T05:52:11.906Z,1016.19
2018-12-29T05:53:11.889Z,1016.19
2018-12-29T05:54:11.875Z,1016.16
2018-12-29T05:55:11.863Z,1016.21
2018-12-29T05:56:11.850Z,1016.22
2018-12-29T05:57:11.835Z,1016.28
2018-12-29T05:58:11.821Z,1016.23
2018-12-29T05:59:11.805Z,1016.24
2018-12-29T06:00:11.792Z,1016.21
2018-12-29T06:01:11.778Z,1016.26
2018-12-29T06:02:11.765Z,1016.31
2018-12-29T06:03:11.751Z,1016.32
2018-12-29T06:04:11.737Z,1016.35
2018-12-29T06:05:11.722Z,1016.37
2018-12-29T06:06:11.709Z,1016.37
2018-12-29T06:07:11.698Z,1016.39
2018-12-29T06:08:11.682Z,1016.36
2018-12-29T06:09:11.667Z,1016.31
2018-12-29T06:10:11.658Z,1016.25
2018-12-29T06:11:11.640Z,1016.30
2018-12-29T06:12:11.626Z,1016.34
2018-12-29T06:13:11.622Z,1016.36
2018-12-29T06:14:11.598Z,1016.36
2018-12-29T06:15:11.584Z,1016.36
2018-12-29T06:18:11.543Z,1016.29
2018-12-29T06:19:11.533Z,1016.29
2018-12-29T06:20:11.520Z,1016.25
2018-12-29T06:21:11.501Z,1016.28
2018-12-29T06:22:11.490Z,1016.29
2018-12-29T06:23:11.474Z,1016.29
2018-12-29T06:24:11.461Z,1016.29
2018-12-29T06:25:11.453Z,1016.28
2018-12-29T06:26:11.433Z,1016.33
2018-12-29T06:27:11.420Z,1016.36
2018-12-29T06:28:11.407Z,1016.39
2018-12-29T06:29:11.398Z,1016.35
2018-12-29T06:30:11.382Z,1016.39
2018-12-29T06:31:11.363Z,1016.40
2018-12-29T06:32:11.349Z,1016.38
2018-12-29T06:33:11.336Z,1016.40
2018-12-29T06:34:11.322Z,1016.42
2018-12-29T06:35:11.315Z,1016.41
2018-12-29T06:36:11.300Z,1016.42
2018-12-29T06:37:11.280Z,1016.39
2018-12-29T06:38:11.271Z,1016.39
2018-12-29T06:39:11.254Z,1016.39
2018-12-29T06:40:11.239Z,1016.43
2018-12-29T06:41:11.225Z,1016.41
2018-12-29T06:42:11.212Z,1016.49
2018-12-29T06:43:11.199Z,1016.45
2018-12-29T06:44:11.186Z,1016.45
2018-12-29T06:45:11.171Z,1016.46
2018-12-29T06:46:11.157Z,1016.47
2018-12-29T06:47:11.144Z,1016.44
2018-12-29T06:48:11.132Z,1016.44
2018-12-29T06:49:11.117Z,1016.44
2018-12-29T06:50:11.104Z,1016.42
2018-12-29T06:51:11.090Z,1016.39
2018-12-29T06:52:11.076Z,1016.40
2018-12-29T06:53:11.062Z,1016.38
2018-12-29T06:54:11.049Z,1016.40
2018-12-29T06:55:11.036Z,1016.40
2018-12-29T06:56:11.022Z,1016.41
2018-12-29T06:57:11.007Z,1016.42
2018-12-29T06:58:10.993Z,1016.42
2018-12-29T06:59:10.980Z,1016.41
2018-12-29T07:00:10.967Z,1016.42
2018-12-29T07:01:10.954Z,1016.41
2018-12-29T07:02:10.938Z,1016.36
2018-12-29T07:03:10.925Z,1016.38
2018-12-29T07:04:10.911Z,1016.39
2018-12-29T07:05:10.899Z,1016.38
2018-12-29T07:06:11.089Z,1016.34
2018-12-29T07:07:10.871Z,1016.40
2018-12-29T07:08:10.855Z,1016.35
2018-12-29T07:09:10.841Z,1016.40
2018-12-29T07:10:10.828Z,1016.39
2018-12-29T07:11:10.814Z,1016.39
2018-12-29T07:12:10.802Z,1016.37
2018-12-29T07:13:10.789Z,1016.40
2018-12-29T07:14:10.774Z,1016.46
2018-12-29T07:15:10.760Z,1016.42
2018-12-29T07:16:10.746Z,1016.49
2018-12-29T07:17:10.731Z,1016.49
2018-12-29T07:18:10.717Z,1016.46
2018-12-29T07:19:10.704Z,1016.48
2018-12-29T07:20:10.690Z,1016.55
2018-12-29T07:21:10.676Z,1016.49
2018-12-29T07:22:10.664Z,1016.48
2018-12-29T07:23:10.653Z,1016.48
2018-12-29T07:24:10.640Z,1016.47
2018-12-29T07:25:10.622Z,1016.41
2018-12-29T07:26:10.609Z,1016.43
2018-12-29T07:27:10.594Z,1016.43
2018-12-29T07:28:10.581Z,1016.41
2018-12-29T07:29:10.566Z,1016.45
2018-12-29T07:30:10.563Z,1016.47
2018-12-29T07:31:10.539Z,1016.48
2018-12-29T07:32:10.525Z,1016.38
2018-12-29T07:33:10.510Z,1016.35
2018-12-29T07:34:10.497Z,1016.32
2018-12-29T07:35:10.484Z,1016.30
2018-12-29T07:36:10.471Z,1016.34
2018-12-29T07:37:10.456Z,1016.36
2018-12-29T07:38:10.442Z,1016.39
2018-12-29T07:39:10.429Z,1016.41
2018-12-29T07:40:10.416Z,1016.35
2018-12-29T07:41:10.401Z,1016.37
2018-12-29T07:42:10.388Z,1016.36
2018-12-29T07:43:10.379Z,1016.38
2018-12-29T07:44:10.361Z,1016.42
2018-12-29T07:45:10.347Z,1016.39
2018-12-29T07:46:10.333Z,1016.42
2018-12-29T07:47:10.323Z,1016.41
2018-12-29T07:48:10.308Z,1016.38
2018-12-29T07:49:10.298Z,1016.45
2018-12-29T07:50:10.281Z,1016.48
2018-12-29T07:51:10.267Z,1016.47
2018-12-29T07:53:10.240Z,1016.47
2018-12-29T07:54:10.227Z,1016.47
2018-12-29T07:55:10.218Z,1016.51
2018-12-29T07:56:10.202Z,1016.46
2018-12-29T07:57:10.187Z,1016.41
2018-12-29T07:58:10.174Z,1016.41
2018-12-29T07:59:10.164Z,1016.41
2018-12-29T08:00:10.149Z,1016.40
2018-12-29T08:01:10.133Z,1016.50
2018-12-29T08:02:10.122Z,1016.45
2018-12-29T08:03:10.108Z,1016.39
2018-12-29T08:04:10.095Z,1016.29
2018-12-29T08:05:10.085Z,1016.26
2018-12-29T08:06:10.067Z,1016.25
2018-12-29T08:07:10.056Z,1016.28
2018-12-29T08:08:10.042Z,1016.23
2018-12-29T08:09:10.028Z,1016.24
2018-12-29T08:10:10.025Z,1016.23
2018-12-29T08:11:10.007Z,1016.26
2018-12-29T08:12:09.989Z,1016.26
2018-12-29T08:13:09.977Z,1016.24
2018-12-29T08:14:09.967Z,1016.25
2018-12-29T08:15:09.952Z,1016.24
2018-12-29T08:16:09.943Z,1016.27
2018-12-29T08:17:09.922Z,1016.24
2018-12-29T08:18:09.914Z,1016.23
2018-12-29T08:19:09.904Z,1016.18
2018-12-29T08:20:09.890Z,1016.21
2018-12-29T08:21:09.870Z,1016.19
2018-12-29T08:22:09.856Z,1016.21
2018-12-29T08:23:09.846Z,1016.20
2018-12-29T08:24:09.836Z,1016.23
2018-12-29T08:25:09.821Z,1016.23
2018-12-29T08:26:09.803Z,1016.23
2018-12-29T08:27:09.798Z,1016.30
2018-12-29T08:28:09.777Z,1016.29
2018-12-29T08:29:09.778Z,1016.28
2018-12-29T08:30:09.751Z,1016.31
2018-12-29T08:31:09.740Z,1016.33
2018-12-29T08:32:09.732Z,1016.32
2018-12-29T08:33:09.709Z,1016.32
2018-12-29T08:34:09.696Z,1016.31
2018-12-29T08:35:09.682Z,1016.33
2018-12-29T08:36:09.669Z,1016.33
2018-12-29T08:37:09.656Z,1016.32
2018-12-29T08:38:09.644Z,1016.36
2018-12-29T08:39:09.629Z,1016.34
2018-12-29T08:40:09.617Z,1016.40
2018-12-29T08:41:09.601Z,1016.43
2018-12-29T08:42:09.591Z,1016.42
2018-12-29T08:43:09.577Z,1016.41
2018-12-29T08:44:09.563Z,1016.40
2018-12-29T08:45:09.548Z,1016.34
2018-12-29T08:46:09.535Z,1016.38
2018-12-29T08:47:09.531Z,1016.42
2018-12-29T08:48:09.509Z,1016.38
2018-12-29T08:49:09.496Z,1016.46
2018-12-29T08:50:13.161Z,1016.46
2018-12-29T08:51:09.468Z,1016.45
2018-12-29T08:52:09.458Z,1016.47
2018-12-29T08:53:09.445Z,1016.42
2018-12-29T08:54:09.428Z,1016.47
2018-12-29T08:55:09.481Z,1016.44
2018-12-29T08:56:09.402Z,1016.44
2018-12-29T08:57:09.389Z,1016.44
2018-12-29T08:58:09.380Z,1016.42
2018-12-29T08:59:09.366Z,1016.42
2018-12-29T09:00:09.349Z,1016.40
2018-12-29T09:01:09.338Z,1016.45
2018-12-29T09:02:09.329Z,1016.44
2018-12-29T09:03:09.309Z,1016.47
2018-12-29T09:04:09.296Z,1016.41
2018-12-29T09:05:09.282Z,1016.44
2018-12-29T09:06:09.281Z,1016.46
2018-12-29T09:07:09.259Z,1016.50
2018-12-29T09:08:09.246Z,1016.54
2018-12-29T09:09:09.238Z,1016.52
2018-12-29T09:10:09.220Z,1016.51
2018-12-29T09:11:09.207Z,1016.48
2018-12-29T09:12:09.194Z,1016.48
2018-12-29T09:13:09.182Z,1016.39
2018-12-29T09:14:09.164Z,1016.37
2018-12-29T09:15:09.152Z,1016.36
2018-12-29T09:16:09.138Z,1016.34
2018-12-29T09:17:12.304Z,1016.32
2018-12-29T09:18:09.112Z,1016.33
2018-12-29T09:19:09.098Z,1016.33
2018-12-29T09:20:09.085Z,1016.33
2018-12-29T09:21:09.071Z,1016.32
2018-12-29T09:22:09.058Z,1016.31
2018-12-29T09:23:09.045Z,1016.24
2018-12-29T09:24:09.032Z,1016.28
2018-12-29T09:25:09.018Z,1016.25
2018-12-29T09:26:09.006Z,1016.32
2018-12-29T09:27:08.993Z,1016.34
2018-12-29T09:28:08.979Z,1016.36
2018-12-29T09:29:08.969Z,1016.36
2018-12-29T09:30:08.953Z,1016.36
2018-12-29T09:31:08.944Z,1016.35
2018-12-29T09:32:08.927Z,1016.33
2018-12-29T09:33:08.913Z,1016.27
2018-12-29T09:35:08.888Z,1016.20
2018-12-29T09:36:08.873Z,1016.18
2018-12-29T09:37:08.860Z,1016.12
2018-12-29T09:38:08.848Z,1016.05
2018-12-29T09:39:08.838Z,1016.09
2018-12-29T09:40:08.823Z,1016.07
2018-12-29T09:41:08.807Z,1016.06
2018-12-29T09:42:08.794Z,1016.06
2018-12-29T09:43:08.780Z,1016.09
2018-12-29T09:44:08.770Z,1016.16
2018-12-29T09:45:08.758Z,1016.10
2018-12-29T09:46:08.740Z,1016.09
2018-12-29T09:47:08.728Z,1016.04
2018-12-29T09:48:08.714Z,1016.04
2018-12-29T09:49:08.700Z,1016.06
2018-12-29T09:50:08.687Z,1016.02
2018-12-29T09:51:08.674Z,1015.95
2018-12-29T09:52:08.662Z,1016.00
2018-12-29T09:53:08.657Z,1015.99
2018-12-29T09:54:08.650Z,1016.01
2018-12-29T09:55:08.623Z,1015.95
2018-12-29T09:56:08.608Z,1015.88
2018-12-29T09:57:08.594Z,1015.90
2018-12-29T09:58:08.581Z,1015.95
2018-12-29T09:59:08.770Z,1015.86
2018-12-29T10:00:08.556Z,1015.88
2018-12-29T10:01:08.541Z,1015.93
2018-12-29T10:02:08.533Z,1015.89
2018-12-29T10:03:08.520Z,1015.85
2018-12-29T10:04:08.505Z,1015.88
2018-12-29T10:05:09.442Z,1015.83
2018-12-29T10:06:08.476Z,1015.78
2018-12-29T10:07:08.664Z,1015.76
2018-12-29T10:08:08.450Z,1015.77
2018-12-29T10:09:08.439Z,1015.72
2018-12-29T10:10:08.428Z,1015.70
2018-12-29T10:11:08.411Z,1015.70
2018-12-29T10:12:08.602Z,1015.67
2018-12-29T10:13:08.383Z,1015.68
2018-12-29T10:14:08.370Z,1015.67
2018-12-29T10:15:08.360Z,1015.66
2018-12-29T10:16:08.346Z,1015.65
2018-12-29T10:17:08.330Z,1015.59
2018-12-29T10:18:08.320Z,1015.59
2018-12-29T10:19:08.309Z,1015.60
2018-12-29T10:20:08.293Z,1015.60
2018-12-29T10:21:08.278Z,1015.54
2018-12-29T10:22:08.269Z,1015.48
2018-12-29T10:23:08.258Z,1015.51
2018-12-29T10:24:08.243Z,1015.51
2018-12-29T10:25:08.226Z,1015.46
2018-12-29T10:26:08.263Z,1015.43
2018-12-29T10:27:08.205Z,1015.34
2018-12-29T10:28:08.191Z,1015.33
2018-12-29T10:29:08.176Z,1015.32
2018-12-29T10:30:08.163Z,1015.38
2018-12-29T10:31:08.157Z,1015.36
2018-12-29T10:32:08.140Z,1015.37
2018-12-29T10:33:08.123Z,1015.30
2018-12-29T10:34:08.110Z,1015.42
2018-12-29T10:35:08.099Z,1015.40
2018-12-29T10:36:08.088Z,1015.36
2018-12-29T10:37:08.072Z,1015.31
2018-12-29T10:38:08.060Z,1015.24
2018-12-29T10:39:08.047Z,1015.33
2018-12-29T10:40:08.037Z,1015.31
2018-12-29T10:41:08.026Z,1015.24
2018-12-29T10:42:08.010Z,1015.28
2018-12-29T10:43:07.998Z,1015.23
2018-12-29T10:44:07.985Z,1015.23
2018-12-29T10:45:07.975Z,1015.23
2018-12-29T10:46:07.967Z,1015.20
2018-12-29T10:47:07.947Z,1015.21
2018-12-29T10:48:07.936Z,1015.18
2018-12-29T10:49:07.925Z,1015.18
2018-12-29T10:50:07.917Z,1015.17
2018-12-29T10:51:07.900Z,1015.22
2018-12-29T10:52:07.891Z,1015.28
2018-12-29T10:53:07.871Z,1015.27
2018-12-29T10:54:07.861Z,1015.30
2018-12-29T10:55:07.851Z,1015.31
2018-12-29T10:56:07.836Z,1015.31
2018-12-29T10:57:07.821Z,1015.38
2018-12-29T10:58:07.817Z,1015.36
2018-12-29T10:59:07.998Z,1015.35
2018-12-29T11:00:07.787Z,1015.44
2018-12-29T11:01:07.769Z,1015.33
2018-12-29T11:02:07.758Z,1015.28
2018-12-29T11:03:07.744Z,1015.36
2018-12-29T11:04:07.759Z,1015.34
2018-12-29T11:05:07.719Z,1015.32
2018-12-29T11:06:07.713Z,1015.29
2018-12-29T11:07:07.694Z,1015.28
2018-12-29T11:08:07.683Z,1015.27
2018-12-29T11:09:07.677Z,1015.31
2018-12-29T11:10:07.663Z,1015.25
2018-12-29T11:11:07.644Z,1015.14
2018-12-29T11:12:07.635Z,1015.12
2018-12-29T11:13:07.621Z,1015.05
2018-12-29T11:14:07.605Z,1015.03
2018-12-29T11:15:07.832Z,1014.94
2018-12-29T11:16:07.591Z,1014.86
2018-12-29T11:17:07.570Z,1014.83
2018-12-29T11:18:07.561Z,1014.72
2018-12-29T11:19:07.542Z,1014.62
2018-12-29T11:20:07.534Z,1014.62
2018-12-29T11:21:07.523Z,1014.62
2018-12-29T11:22:07.515Z,1014.60
2018-12-29T11:23:07.493Z,1014.59
2018-12-29T11:24:07.481Z,1014.58
2018-12-29T11:25:07.467Z,1014.58
2018-12-29T11:26:07.455Z,1014.60
2018-12-29T11:27:07.442Z,1014.58
2018-12-29T11:28:07.430Z,1014.56
2018-12-29T11:29:07.418Z,1014.62
2018-12-29T11:30:07.413Z,1014.66
2018-12-29T11:31:07.396Z,1014.75
2018-12-29T11:32:07.385Z,1014.89
2018-12-29T11:33:07.383Z,1014.94
2018-12-29T11:34:07.355Z,1014.91
2018-12-29T11:35:07.347Z,1014.97
2018-12-29T11:36:07.331Z,1014.88
2018-12-29T11:37:07.321Z,1014.88
2018-12-29T11:38:07.306Z,1014.84
2018-12-29T11:39:07.300Z,1014.85
2018-12-29T11:40:07.282Z,1014.82
2018-12-29T11:41:07.268Z,1014.89
2018-12-29T11:42:07.258Z,1014.93
2018-12-29T11:43:07.243Z,1014.88
2018-12-29T11:44:07.231Z,1014.88
2018-12-29T11:45:07.217Z,1014.80
2018-12-29T11:46:07.205Z,1014.82
2018-12-29T11:47:07.196Z,1014.65
2018-12-29T11:48:07.183Z,1014.58
2018-12-29T11:49:07.245Z,1014.49
2018-12-29T11:50:07.159Z,1014.50
2018-12-29T11:51:07.146Z,1014.55
2018-12-29T11:52:07.130Z,1014.43
2018-12-29T11:53:07.119Z,1014.47
2018-12-29T11:54:07.107Z,1014.52
2018-12-29T11:55:07.092Z,1014.55
2018-12-29T11:56:07.079Z,1014.59
2018-12-29T11:57:07.071Z,1014.56
2018-12-29T11:58:07.058Z,1014.50
2018-12-29T11:59:07.048Z,1014.39
2018-12-29T12:00:08.398Z,1014.35
2018-12-29T12:01:07.218Z,1014.33
2018-12-29T12:02:07.008Z,1014.30
2018-12-29T12:03:06.991Z,1014.26
2018-12-29T12:04:07.237Z,1014.23
2018-12-29T12:05:06.965Z,1014.20
2018-12-29T12:06:06.953Z,1014.17
2018-12-29T12:07:06.941Z,1014.12
2018-12-29T12:08:06.931Z,1014.11
2018-12-29T12:09:06.914Z,1014.19
2018-12-29T12:10:06.904Z,1014.20